Ag Nektarios Aiginas — SX7083 — position and weather

sailwx.info

Track history (hours):
 
Tides and Currents Weather Stations Pressure Air Temp Water Temp Dewpoint Dewpoint Depression Visibility Wind Speed Wind Dir Waves Ship Positions

Ag Nektarios Aiginas

Last reported at 2016-Aug-28 18:33 UTC. Time now 2016-Aug-28 18:54 UTC.
Position N 37°47' E 023°26'.

Length 75 m; draft 2.7 m.

Type: Passenger vessel. MMSI: 237021400.

Date/timePositionNaut miles runAvg speedWind from/ knotsBaromVisibWave heightAir tempDewpointWater temp
2016-Aug-28 18:33N 37°47' E 023°26'1 0.6
2016-Aug-28 17:33N 37°46' E 023°25'1313.1
2016-Aug-28 16:33N 37°56' E 023°36'4 3.9
2016-Aug-28 15:33N 37°52' E 023°33'10 9.9
2016-Aug-28 14:33N 37°45' E 023°26'3 2.7
2016-Aug-28 13:33N 37°47' E 023°27'1312.9
2016-Aug-28 12:33N 37°57' E 023°38'5 5.2
2016-Aug-28 11:33N 37°53' E 023°34'1010.3
2016-Aug-28 10:33N 37°45' E 023°25'3 3.2
2016-Aug-28 09:33N 37°48' E 023°27'1312.7
2016-Aug-28 08:33N 37°57' E 023°38'0 0.1
2016-Aug-28 07:33N 37°57' E 023°39'0 0.0
2016-Aug-27 17:08N 37°57' E 023°38'2 3.0
2016-Aug-27 16:33N 37°56' E 023°36'1312.6
2016-Aug-27 15:33N 37°46' E 023°25'1 0.9
2016-Aug-27 14:33N 37°46' E 023°25'1313.2
2016-Aug-27 13:33N 37°55' E 023°36'0 0.2
2016-Aug-27 12:33N 37°55' E 023°36'1212.3
2016-Aug-27 11:33N 37°47' E 023°26'1 1.3
2016-Aug-27 10:33N 37°45' E 023°25'1312.9
2016-Aug-27 09:33N 37°55' E 023°36'2 1.6
2016-Aug-27 08:34N 37°56' E 023°37'1211.9
2016-Aug-27 07:33N 37°47' E 023°27'1 1.1
2016-Aug-27 06:33N 37°47' E 023°26'14 1.3
2016-Aug-26 19:34N 37°57' E 023°38'1211.7
2016-Aug-26 18:33N 37°48' E 023°28'1 1.4
2016-Aug-26 17:33N 37°47' E 023°27'1212.5
2016-Aug-26 16:33N 37°56' E 023°38'4 3.9
2016-Aug-26 15:33N 37°53' E 023°34'1111.2
2016-Aug-26 14:33N 37°45' E 023°25'3 3.1
2016-Aug-26 13:33N 37°47' E 023°27'1312.6
2016-Aug-26 12:33N 37°57' E 023°38'5 5.2
2016-Aug-26 11:34N 37°53' E 023°34'11 9.9
2016-Aug-26 10:30N 37°45' E 023°26'3 3.2
2016-Aug-26 09:33N 37°47' E 023°27'1312.7
2016-Aug-26 08:33N 37°57' E 023°38'0 0.2
2016-Aug-26 07:33N 37°57' E 023°39'2 0.1
2016-Aug-25 16:33N 37°56' E 023°36'1312.6
2016-Aug-25 15:33N 37°47' E 023°26'1 0.9
2016-Aug-25 14:34N 37°46' E 023°25'1313.1
2016-Aug-25 13:33N 37°55' E 023°36'0 0.3
2016-Aug-25 12:33N 37°55' E 023°36'1212.5
2016-Aug-25 11:33N 37°46' E 023°25'0 0.5
2016-Aug-25 10:33N 37°46' E 023°25'1313.1
2016-Aug-25 09:33N 37°55' E 023°36'2 1.7
2016-Aug-25 08:33N 37°56' E 023°38'1212.3
2016-Aug-25 07:34N 37°48' E 023°27'2 2.3
2016-Aug-25 06:33N 37°46' E 023°25'15 7.5
2016-Aug-25 04:33N 37°57' E 023°39'2 0.2
2016-Aug-24 16:33N 37°55' E 023°36'1312.7
2016-Aug-24 15:33N 37°46' E 023°25'0 0.1
2016-Aug-24 14:33N 37°46' E 023°25'1313.1
2016-Aug-24 13:33N 37°55' E 023°36'0 0.4
2016-Aug-24 12:33N 37°56' E 023°36'1312.5
2016-Aug-24 11:33N 37°47' E 023°25'1 1.4
2016-Aug-24 10:33N 37°45' E 023°25'1313.1
2016-Aug-24 09:33N 37°55' E 023°36'2 2.3
2016-Aug-24 08:33N 37°57' E 023°38'1211.7
2016-Aug-24 07:33N 37°48' E 023°28'3 3.1
2016-Aug-24 06:33N 37°46' E 023°25'15 7.6
2016-Aug-24 04:33N 37°57' E 023°39'0 0.0
2016-Aug-23 17:06N 37°57' E 023°39'2 3.4
2016-Aug-23 16:34N 37°56' E 023°36'1212.3
2016-Aug-23 15:33N 37°47' E 023°26'2 1.8
2016-Aug-23 14:33N 37°45' E 023°25'1312.9
2016-Aug-23 13:33N 37°55' E 023°36'2 2.1
2016-Aug-23 12:33N 37°56' E 023°37'1312.9
2016-Aug-23 11:34N 37°47' E 023°26'2 2.0
2016-Aug-23 10:33N 37°45' E 023°25'1312.9
2016-Aug-23 09:33N 37°55' E 023°36'1 1.3
2016-Aug-23 08:33N 37°56' E 023°37'1212.4
2016-Aug-23 07:34N 37°47' E 023°26'1 0.9
2016-Aug-23 06:33N 37°46' E 023°25'1313.1
2016-Aug-23 05:33N 37°56' E 023°37'2 1.8
2016-Aug-23 04:33N 37°57' E 023°39'1 0.1
2016-Aug-22 16:33N 37°56' E 023°37'1313.0
2016-Aug-22 15:33N 37°47' E 023°26'2 2.1
2016-Aug-22 14:33N 37°45' E 023°25'1312.7
2016-Aug-22 13:34N 37°54' E 023°36'2 2.0
2016-Aug-22 12:33N 37°56' E 023°37'1313.0
2016-Aug-22 11:33N 37°47' E 023°26'1 1.4
2016-Aug-22 10:33N 37°46' E 023°25'1312.8
2016-Aug-22 09:33N 37°55' E 023°36'1 1.5
2016-Aug-22 08:33N 37°56' E 023°36'1312.8
2016-Aug-22 07:33N 37°47' E 023°26'0 0.1
2016-Aug-22 06:33N 37°47' E 023°26'1312.7
2016-Aug-22 05:33N 37°56' E 023°37'2 1.7
2016-Aug-22 04:33N 37°57' E 023°39'0 0.0
2016-Aug-21 19:34N 37°57' E 023°39'1211.7
2016-Aug-21 18:34N 37°48' E 023°28'4 3.7
2016-Aug-21 17:34N 37°46' E 023°25'1313.0
2016-Aug-21 16:34N 37°55' E 023°36'3 2.6
2016-Aug-21 15:34N 37°53' E 023°34'1110.8
2016-Aug-21 14:33N 37°45' E 023°25'3 2.9
2016-Aug-21 13:33N 37°47' E 023°27'1312.8
2016-Aug-21 12:33N 37°57' E 023°38'4 4.5
2016-Aug-21 11:33N 37°53' E 023°34'1111.1
2016-Aug-21 10:33N 37°45' E 023°25'3 3.3
2016-Aug-21 09:34N 37°47' E 023°28'1212.4
2016-Aug-21 08:34N 37°57' E 023°38'0 0.1
2016-Aug-21 07:34N 37°57' E 023°39'2 0.1
2016-Aug-20 16:34N 37°56' E 023°37'1212.3
2016-Aug-20 15:34N 37°47' E 023°26'2 2.2
2016-Aug-20 14:34N 37°45' E 023°25'1312.7
2016-Aug-20 13:34N 37°54' E 023°36'2 2.0
2016-Aug-20 12:33N 37°56' E 023°37'1312.7
2016-Aug-20 11:33N 37°47' E 023°26'2 1.8
2016-Aug-20 10:33N 37°45' E 023°25'1312.8
2016-Aug-20 09:34N 37°55' E 023°36'3 3.0
2016-Aug-20 08:34N 37°57' E 023°38'1111.4
2016-Aug-20 07:33N 37°48' E 023°29'4 3.6
2016-Aug-20 06:33N 37°46' E 023°25'1312.8
2016-Aug-20 05:33N 37°55' E 023°36'2 2.0
2016-Aug-20 04:34N 37°57' E 023°38'0 0.0
2016-Aug-19 19:33N 37°57' E 023°38'1110.6
2016-Aug-19 18:34N 37°49' E 023°30'5 5.3
2016-Aug-19 17:33N 37°45' E 023°25'1212.4
2016-Aug-19 16:34N 37°54' E 023°35'0 0.5
2016-Aug-19 15:34N 37°54' E 023°35'1211.8
2016-Aug-19 14:33N 37°45' E 023°25'4 3.7
2016-Aug-19 13:33N 37°48' E 023°28'1212.2
2016-Aug-19 12:34N 37°57' E 023°38'4 4.3
2016-Aug-19 11:34N 37°53' E 023°35'1111.4
2016-Aug-19 10:33N 37°45' E 023°25'3 3.3
2016-Aug-19 09:34N 37°48' E 023°28'1212.4
2016-Aug-19 08:33N 37°57' E 023°38'0 0.1
2016-Aug-19 07:33N 37°57' E 023°39'  
Track history (hours):
 
Tides and Currents Weather Stations Pressure Air Temp Water Temp Dewpoint Dewpoint Depression Visibility Wind Speed Wind Dir Waves Ship Positions

Ag Nektarios Aiginas

Last reported at 2016-Aug-28 18:33 UTC. Time now 2016-Aug-28 18:54 UTC.
Position N 37°47' E 023°26'.

Length 75 m; draft 2.7 m.

Type: Passenger vessel. MMSI: 237021400.

Date/timePositionNaut miles runAvg speedWind from/ knotsBaromVisibWave heightAir tempDewpointWater temp
2016-Aug-28 18:33N 37°47' E 023°26'1 0.6
2016-Aug-28 17:33N 37°46' E 023°25'1313.1
2016-Aug-28 16:33N 37°56' E 023°36'4 3.9
2016-Aug-28 15:33N 37°52' E 023°33'10 9.9
2016-Aug-28 14:33N 37°45' E 023°26'3 2.7
2016-Aug-28 13:33N 37°47' E 023°27'1312.9
2016-Aug-28 12:33N 37°57' E 023°38'5 5.2
2016-Aug-28 11:33N 37°53' E 023°34'1010.3
2016-Aug-28 10:33N 37°45' E 023°25'3 3.2
2016-Aug-28 09:33N 37°48' E 023°27'1312.7
2016-Aug-28 08:33N 37°57' E 023°38'0 0.1
2016-Aug-28 07:33N 37°57' E 023°39'0 0.0
2016-Aug-27 17:08N 37°57' E 023°38'2 3.0
2016-Aug-27 16:33N 37°56' E 023°36'1312.6
2016-Aug-27 15:33N 37°46' E 023°25'1 0.9
2016-Aug-27 14:33N 37°46' E 023°25'1313.2
2016-Aug-27 13:33N 37°55' E 023°36'0 0.2
2016-Aug-27 12:33N 37°55' E 023°36'1212.3
2016-Aug-27 11:33N 37°47' E 023°26'1 1.3
2016-Aug-27 10:33N 37°45' E 023°25'1312.9
2016-Aug-27 09:33N 37°55' E 023°36'2 1.6
2016-Aug-27 08:34N 37°56' E 023°37'1211.9
2016-Aug-27 07:33N 37°47' E 023°27'1 1.1
2016-Aug-27 06:33N 37°47' E 023°26'14 1.3
2016-Aug-26 19:34N 37°57' E 023°38'1211.7
2016-Aug-26 18:33N 37°48' E 023°28'1 1.4
2016-Aug-26 17:33N 37°47' E 023°27'1212.5
2016-Aug-26 16:33N 37°56' E 023°38'4 3.9
2016-Aug-26 15:33N 37°53' E 023°34'1111.2
2016-Aug-26 14:33N 37°45' E 023°25'3 3.1
2016-Aug-26 13:33N 37°47' E 023°27'1312.6
2016-Aug-26 12:33N 37°57' E 023°38'5 5.2
2016-Aug-26 11:34N 37°53' E 023°34'11 9.9
2016-Aug-26 10:30N 37°45' E 023°26'3 3.2
2016-Aug-26 09:33N 37°47' E 023°27'1312.7
2016-Aug-26 08:33N 37°57' E 023°38'0 0.2
2016-Aug-26 07:33N 37°57' E 023°39'2 0.1
2016-Aug-25 16:33N 37°56' E 023°36'1312.6
2016-Aug-25 15:33N 37°47' E 023°26'1 0.9
2016-Aug-25 14:34N 37°46' E 023°25'1313.1
2016-Aug-25 13:33N 37°55' E 023°36'0 0.3
2016-Aug-25 12:33N 37°55' E 023°36'1212.5
2016-Aug-25 11:33N 37°46' E 023°25'0 0.5
2016-Aug-25 10:33N 37°46' E 023°25'1313.1
2016-Aug-25 09:33N 37°55' E 023°36'2 1.7
2016-Aug-25 08:33N 37°56' E 023°38'1212.3
2016-Aug-25 07:34N 37°48' E 023°27'2 2.3
2016-Aug-25 06:33N 37°46' E 023°25'15 7.5
2016-Aug-25 04:33N 37°57' E 023°39'2 0.2
2016-Aug-24 16:33N 37°55' E 023°36'1312.7
2016-Aug-24 15:33N 37°46' E 023°25'0 0.1
2016-Aug-24 14:33N 37°46' E 023°25'1313.1
2016-Aug-24 13:33N 37°55' E 023°36'0 0.4
2016-Aug-24 12:33N 37°56' E 023°36'1312.5
2016-Aug-24 11:33N 37°47' E 023°25'1 1.4
2016-Aug-24 10:33N 37°45' E 023°25'1313.1
2016-Aug-24 09:33N 37°55' E 023°36'2 2.3
2016-Aug-24 08:33N 37°57' E 023°38'1211.7
2016-Aug-24 07:33N 37°48' E 023°28'3 3.1
2016-Aug-24 06:33N 37°46' E 023°25'15 7.6
2016-Aug-24 04:33N 37°57' E 023°39'0 0.0
2016-Aug-23 17:06N 37°57' E 023°39'2 3.4
2016-Aug-23 16:34N 37°56' E 023°36'1212.3
2016-Aug-23 15:33N 37°47' E 023°26'2 1.8
2016-Aug-23 14:33N 37°45' E 023°25'1312.9
2016-Aug-23 13:33N 37°55' E 023°36'2 2.1
2016-Aug-23 12:33N 37°56' E 023°37'1312.9
2016-Aug-23 11:34N 37°47' E 023°26'2 2.0
2016-Aug-23 10:33N 37°45' E 023°25'1312.9
2016-Aug-23 09:33N 37°55' E 023°36'1 1.3
2016-Aug-23 08:33N 37°56' E 023°37'1212.4
2016-Aug-23 07:34N 37°47' E 023°26'1 0.9
2016-Aug-23 06:33N 37°46' E 023°25'1313.1
2016-Aug-23 05:33N 37°56' E 023°37'2 1.8
2016-Aug-23 04:33N 37°57' E 023°39'1 0.1
2016-Aug-22 16:33N 37°56' E 023°37'1313.0
2016-Aug-22 15:33N 37°47' E 023°26'2 2.1
2016-Aug-22 14:33N 37°45' E 023°25'1312.7
2016-Aug-22 13:34N 37°54' E 023°36'2 2.0
2016-Aug-22 12:33N 37°56' E 023°37'1313.0
2016-Aug-22 11:33N 37°47' E 023°26'1 1.4
2016-Aug-22 10:33N 37°46' E 023°25'1312.8
2016-Aug-22 09:33N 37°55' E 023°36'1 1.5
2016-Aug-22 08:33N 37°56' E 023°36'1312.8
2016-Aug-22 07:33N 37°47' E 023°26'0 0.1
2016-Aug-22 06:33N 37°47' E 023°26'1312.7
2016-Aug-22 05:33N 37°56' E 023°37'2 1.7
2016-Aug-22 04:33N 37°57' E 023°39'0 0.0
2016-Aug-21 19:34N 37°57' E 023°39'1211.7
2016-Aug-21 18:34N 37°48' E 023°28'4 3.7
2016-Aug-21 17:34N 37°46' E 023°25'1313.0
2016-Aug-21 16:34N 37°55' E 023°36'3 2.6
2016-Aug-21 15:34N 37°53' E 023°34'1110.8
2016-Aug-21 14:33N 37°45' E 023°25'3 2.9
2016-Aug-21 13:33N 37°47' E 023°27'1312.8
2016-Aug-21 12:33N 37°57' E 023°38'4 4.5
2016-Aug-21 11:33N 37°53' E 023°34'1111.1
2016-Aug-21 10:33N 37°45' E 023°25'3 3.3
2016-Aug-21 09:34N 37°47' E 023°28'1212.4
2016-Aug-21 08:34N 37°57' E 023°38'0 0.1
2016-Aug-21 07:34N 37°57' E 023°39'2 0.1
2016-Aug-20 16:34N 37°56' E 023°37'1212.3
2016-Aug-20 15:34N 37°47' E 023°26'2 2.2
2016-Aug-20 14:34N 37°45' E 023°25'1312.7
2016-Aug-20 13:34N 37°54' E 023°36'2 2.0
2016-Aug-20 12:33N 37°56' E 023°37'1312.7
2016-Aug-20 11:33N 37°47' E 023°26'2 1.8
2016-Aug-20 10:33N 37°45' E 023°25'1312.8
2016-Aug-20 09:34N 37°55' E 023°36'3 3.0
2016-Aug-20 08:34N 37°57' E 023°38'1111.4
2016-Aug-20 07:33N 37°48' E 023°29'4 3.6
2016-Aug-20 06:33N 37°46' E 023°25'1312.8
2016-Aug-20 05:33N 37°55' E 023°36'2 2.0
2016-Aug-20 04:34N 37°57' E 023°38'0 0.0
2016-Aug-19 19:33N 37°57' E 023°38'1110.6
2016-Aug-19 18:34N 37°49' E 023°30'5 5.3
2016-Aug-19 17:33N 37°45' E 023°25'1212.4
2016-Aug-19 16:34N 37°54' E 023°35'0 0.5
2016-Aug-19 15:34N 37°54' E 023°35'1211.8
2016-Aug-19 14:33N 37°45' E 023°25'4 3.7
2016-Aug-19 13:33N 37°48' E 023°28'1212.2
2016-Aug-19 12:34N 37°57' E 023°38'4 4.3
2016-Aug-19 11:34N 37°53' E 023°35'1111.4
2016-Aug-19 10:33N 37°45' E 023°25'3 3.3
2016-Aug-19 09:34N 37°48' E 023°28'1212.4
2016-Aug-19 08:33N 37°57' E 023°38'0 0.1
2016-Aug-19 07:33N 37°57' E 023°39'  

Dump ship's entire track history